香港 の空港の天気 - METARとTAF

香港国際空港 ( VHHH / HKG ) - 香港 赤リョウ角
飛行場実況気象(Metar)
観測時間09/27 16:30 HKT (09/27 08:30 UTC)
風向・風速西南西 3m/s
視程10km以上
天気現象
少しの雲 雲底高度 760m
気温32℃
湿度59%
気圧1009hPa
METARVHHH 270830Z 25005KT 210V280 9999 FEW025 32/23 Q1009 NOSIG
過去の天気等 Google飛行場航空写真 Wunderground天気予報

過去48時間のMETAR

飛行場予報(TAF)
発表時間: 9/27 13:00 HKT (9/27 05:00 UTC)
予報対象時間: 27日14時 HKT ~ 28日20時 HKT
風向・風速西 5m/s
視程10km以上
少しの雲 雲底高度 760m
全天の4割程度の雲 雲底高度 1220m
27日16時 HKT ~ 27日18時 HKT に徐々に
風向・風速不定 3m/s
27日18時 HKT ~ 27日24時 HKT に一時的に
風向・風速東南東 5m/s
28日10時 HKT ~ 28日12時 HKT に徐々に
風向・風速西 5m/s
28日17時 HKT ~ 28日19時 HKT に徐々に
風向・風速不定 3m/s
TAF VHHH 270500Z 2706/2812 27010KT 9999 FEW025 SCT040 TX32/2706Z TX33/2806Z TN27/2722Z
BECMG 2708/2710 VRB05KT
TEMPO 2710/2716 12010KT
BECMG 2802/2804 27010KT
BECMG 2809/2811 VRB05KT